sensor_id;sensor_type;location;lat;lon;timestamp;P1;durP1;ratioP1;P2;durP2;ratioP2
71629;SDS011;59479;51.902;8.212;2023-03-23T00:01:45;6.63;;;2.50;;
71629;SDS011;59479;51.902;8.212;2023-03-23T00:04:10;5.70;;;3.00;;
71629;SDS011;59479;51.902;8.212;2023-03-23T00:06:37;6.63;;;2.60;;
71629;SDS011;59479;51.902;8.212;2023-03-23T00:09:03;5.33;;;2.37;;
71629;SDS011;59479;51.902;8.212;2023-03-23T00:11:29;6.85;;;2.80;;
71629;SDS011;59479;51.902;8.212;2023-03-23T00:13:56;7.78;;;2.50;;
71629;SDS011;59479;51.902;8.212;2023-03-23T00:16:25;6.35;;;2.40;;
71629;SDS011;59479;51.902;8.212;2023-03-23T00:18:57;5.70;;;3.17;;
71629;SDS011;59479;51.902;8.212;2023-03-23T00:21:23;5.40;;;2.47;;
71629;SDS011;59479;51.902;8.212;2023-03-23T00:24:03;6.00;;;2.40;;
71629;SDS011;59479;51.902;8.212;2023-03-23T00:26:43;8.10;;;2.70;;
71629;SDS011;59479;51.902;8.212;2023-03-23T00:29:20;6.28;;;2.67;;
71629;SDS011;59479;51.902;8.212;2023-03-23T00:31:47;7.03;;;2.37;;
71629;SDS011;59479;51.902;8.212;2023-03-23T00:34:14;6.68;;;2.80;;
71629;SDS011;59479;51.902;8.212;2023-03-23T00:36:44;5.38;;;2.50;;
71629;SDS011;59479;51.902;8.212;2023-03-23T00:39:14;6.18;;;2.80;;
71629;SDS011;59479;51.902;8.212;2023-03-23T00:41:41;6.22;;;2.90;;
71629;SDS011;59479;51.902;8.212;2023-03-23T00:44:10;4.77;;;2.47;;
71629;SDS011;59479;51.902;8.212;2023-03-23T00:46:41;6.05;;;2.58;;
71629;SDS011;59479;51.902;8.212;2023-03-23T00:49:13;4.93;;;2.33;;
71629;SDS011;59479;51.902;8.212;2023-03-23T00:51:40;6.93;;;3.50;;
71629;SDS011;59479;51.902;8.212;2023-03-23T00:54:06;4.60;;;2.20;;
71629;SDS011;59479;51.902;8.212;2023-03-23T00:56:32;4.77;;;2.40;;
71629;SDS011;59479;51.902;8.212;2023-03-23T00:58:57;5.35;;;2.42;;
71629;SDS011;59479;51.902;8.212;2023-03-23T01:01:23;6.53;;;3.03;;
71629;SDS011;59479;51.902;8.212;2023-03-23T01:03:48;5.37;;;2.37;;
71629;SDS011;59479;51.902;8.212;2023-03-23T01:06:14;4.78;;;2.28;;
71629;SDS011;59479;51.902;8.212;2023-03-23T01:08:40;5.32;;;2.50;;
71629;SDS011;59479;51.902;8.212;2023-03-23T01:11:11;5.57;;;2.58;;
71629;SDS011;59479;51.902;8.212;2023-03-23T01:13:38;4.50;;;2.30;;
71629;SDS011;59479;51.902;8.212;2023-03-23T01:16:04;5.45;;;2.58;;
71629;SDS011;59479;51.902;8.212;2023-03-23T01:18:30;5.47;;;2.40;;
71629;SDS011;59479;51.902;8.212;2023-03-23T01:20:55;5.40;;;2.40;;
71629;SDS011;59479;51.902;8.212;2023-03-23T01:23:20;7.20;;;2.47;;
71629;SDS011;59479;51.902;8.212;2023-03-23T01:25:46;4.55;;;2.20;;
71629;SDS011;59479;51.902;8.212;2023-03-23T01:28:11;5.32;;;2.05;;
71629;SDS011;59479;51.902;8.212;2023-03-23T01:30:37;5.67;;;2.27;;
71629;SDS011;59479;51.902;8.212;2023-03-23T01:33:02;5.43;;;2.23;;
71629;SDS011;59479;51.902;8.212;2023-03-23T01:35:27;6.47;;;2.60;;
71629;SDS011;59479;51.902;8.212;2023-03-23T01:37:53;5.50;;;2.33;;
71629;SDS011;59479;51.902;8.212;2023-03-23T01:40:19;4.95;;;2.35;;
71629;SDS011;59479;51.902;8.212;2023-03-23T01:42:44;5.27;;;2.47;;
71629;SDS011;59479;51.902;8.212;2023-03-23T01:47:45;5.90;;;2.53;;
71629;SDS011;59479;51.902;8.212;2023-03-23T01:50:14;6.70;;;2.20;;
71629;SDS011;59479;51.902;8.212;2023-03-23T01:52:40;5.35;;;2.40;;
71629;SDS011;59479;51.902;8.212;2023-03-23T01:55:06;5.20;;;1.83;;
71629;SDS011;59479;51.902;8.212;2023-03-23T01:57:32;4.30;;;2.22;;
71629;SDS011;59479;51.902;8.212;2023-03-23T01:59:59;4.20;;;2.17;;
71629;SDS011;59479;51.902;8.212;2023-03-23T02:02:39;5.38;;;2.53;;
71629;SDS011;59479;51.902;8.212;2023-03-23T02:05:08;4.80;;;2.10;;
71629;SDS011;59479;51.902;8.212;2023-03-23T02:07:36;6.60;;;2.50;;
71629;SDS011;59479;51.902;8.212;2023-03-23T02:10:02;4.80;;;2.53;;
71629;SDS011;59479;51.902;8.212;2023-03-23T02:12:28;4.85;;;2.03;;
71629;SDS011;59479;51.902;8.212;2023-03-23T02:14:54;4.70;;;2.67;;
71629;SDS011;59479;51.902;8.212;2023-03-23T02:17:28;4.47;;;2.10;;
71629;SDS011;59479;51.902;8.212;2023-03-23T02:25:57;6.20;;;2.30;;
71629;SDS011;59479;51.902;8.212;2023-03-23T02:34:16;6.97;;;2.60;;
71629;SDS011;59479;51.902;8.212;2023-03-23T02:36:58;4.72;;;2.22;;
71629;SDS011;59479;51.902;8.212;2023-03-23T02:39:34;6.40;;;2.63;;
71629;SDS011;59479;51.902;8.212;2023-03-23T02:42:05;5.80;;;2.83;;
71629;SDS011;59479;51.902;8.212;2023-03-23T02:44:33;4.65;;;2.05;;
71629;SDS011;59479;51.902;8.212;2023-03-23T02:47:01;4.53;;;2.10;;
71629;SDS011;59479;51.902;8.212;2023-03-23T02:49:31;5.25;;;2.38;;
71629;SDS011;59479;51.902;8.212;2023-03-23T02:51:59;6.63;;;2.40;;
71629;SDS011;59479;51.902;8.212;2023-03-23T02:54:29;4.20;;;1.80;;
71629;SDS011;59479;51.902;8.212;2023-03-23T02:56:54;3.70;;;1.70;;
71629;SDS011;59479;51.902;8.212;2023-03-23T02:59:22;3.50;;;1.80;;
71629;SDS011;59479;51.902;8.212;2023-03-23T03:01:51;6.47;;;2.25;;
71629;SDS011;59479;51.902;8.212;2023-03-23T03:04:21;4.80;;;2.00;;
71629;SDS011;59479;51.902;8.212;2023-03-23T03:12:14;7.25;;;2.25;;
71629;SDS011;59479;51.902;8.212;2023-03-23T03:14:54;3.45;;;1.80;;
71629;SDS011;59479;51.902;8.212;2023-03-23T03:17:28;5.30;;;2.00;;
71629;SDS011;59479;51.902;8.212;2023-03-23T03:19:56;3.97;;;1.90;;
71629;SDS011;59479;51.902;8.212;2023-03-23T03:22:26;4.50;;;1.90;;
71629;SDS011;59479;51.902;8.212;2023-03-23T03:24:55;4.53;;;1.80;;
71629;SDS011;59479;51.902;8.212;2023-03-23T03:27:22;3.60;;;1.85;;
71629;SDS011;59479;51.902;8.212;2023-03-23T03:29:49;3.60;;;1.50;;
71629;SDS011;59479;51.902;8.212;2023-03-23T03:32:20;4.60;;;1.65;;
71629;SDS011;59479;51.902;8.212;2023-03-23T03:34:49;5.47;;;2.53;;
71629;SDS011;59479;51.902;8.212;2023-03-23T03:37:15;4.30;;;1.70;;
71629;SDS011;59479;51.902;8.212;2023-03-23T03:39:42;3.92;;;1.63;;
71629;SDS011;59479;51.902;8.212;2023-03-23T03:42:07;3.83;;;1.90;;
71629;SDS011;59479;51.902;8.212;2023-03-23T03:44:33;3.73;;;1.97;;
71629;SDS011;59479;51.902;8.212;2023-03-23T03:46:59;4.05;;;1.90;;
71629;SDS011;59479;51.902;8.212;2023-03-23T03:49:24;3.60;;;1.93;;
71629;SDS011;59479;51.902;8.212;2023-03-23T03:51:50;4.18;;;2.13;;
71629;SDS011;59479;51.902;8.212;2023-03-23T03:54:16;3.40;;;1.80;;
71629;SDS011;59479;51.902;8.212;2023-03-23T03:56:41;3.42;;;1.73;;
71629;SDS011;59479;51.902;8.212;2023-03-23T03:59:07;3.60;;;1.80;;
71629;SDS011;59479;51.902;8.212;2023-03-23T04:01:35;3.83;;;2.10;;
71629;SDS011;59479;51.902;8.212;2023-03-23T04:04:01;4.22;;;2.00;;
71629;SDS011;59479;51.902;8.212;2023-03-23T04:06:27;3.50;;;1.70;;
71629;SDS011;59479;51.902;8.212;2023-03-23T04:08:54;6.20;;;1.92;;
71629;SDS011;59479;51.902;8.212;2023-03-23T04:11:20;4.80;;;1.90;;
71629;SDS011;59479;51.902;8.212;2023-03-23T04:13:46;5.25;;;2.13;;
71629;SDS011;59479;51.902;8.212;2023-03-23T04:16:11;4.68;;;1.80;;
71629;SDS011;59479;51.902;8.212;2023-03-23T04:18:36;3.53;;;1.70;;
71629;SDS011;59479;51.902;8.212;2023-03-23T04:21:02;5.33;;;2.00;;
71629;SDS011;59479;51.902;8.212;2023-03-23T04:23:29;4.70;;;2.17;;
71629;SDS011;59479;51.902;8.212;2023-03-23T04:25:56;4.27;;;1.70;;
71629;SDS011;59479;51.902;8.212;2023-03-23T04:28:23;3.30;;;1.60;;
71629;SDS011;59479;51.902;8.212;2023-03-23T04:30:50;3.70;;;2.03;;
71629;SDS011;59479;51.902;8.212;2023-03-23T04:33:20;4.95;;;1.77;;
71629;SDS011;59479;51.902;8.212;2023-03-23T04:35:46;3.95;;;2.10;;
71629;SDS011;59479;51.902;8.212;2023-03-23T04:38:13;3.87;;;1.80;;
71629;SDS011;59479;51.902;8.212;2023-03-23T04:40:41;3.75;;;1.75;;
71629;SDS011;59479;51.902;8.212;2023-03-23T04:43:07;4.75;;;2.10;;
71629;SDS011;59479;51.902;8.212;2023-03-23T04:45:33;3.80;;;1.83;;
71629;SDS011;59479;51.902;8.212;2023-03-23T04:48:02;4.60;;;1.92;;
71629;SDS011;59479;51.902;8.212;2023-03-23T04:50:30;3.90;;;1.90;;
71629;SDS011;59479;51.902;8.212;2023-03-23T04:52:57;3.78;;;2.15;;
71629;SDS011;59479;51.902;8.212;2023-03-23T04:55:23;3.70;;;1.87;;
71629;SDS011;59479;51.902;8.212;2023-03-23T04:57:50;3.70;;;1.90;;
71629;SDS011;59479;51.902;8.212;2023-03-23T05:00:17;4.38;;;2.00;;
71629;SDS011;59479;51.902;8.212;2023-03-23T05:02:44;3.95;;;1.80;;
71629;SDS011;59479;51.902;8.212;2023-03-23T05:05:11;6.57;;;2.30;;
71629;SDS011;59479;51.902;8.212;2023-03-23T05:07:38;4.05;;;2.00;;
71629;SDS011;59479;51.902;8.212;2023-03-23T05:10:04;4.15;;;1.90;;
71629;SDS011;59479;51.902;8.212;2023-03-23T05:12:31;3.93;;;1.77;;
71629;SDS011;59479;51.902;8.212;2023-03-23T05:14:56;4.30;;;1.83;;
71629;SDS011;59479;51.902;8.212;2023-03-23T05:17:22;3.90;;;1.90;;
71629;SDS011;59479;51.902;8.212;2023-03-23T05:19:49;3.40;;;1.70;;
71629;SDS011;59479;51.902;8.212;2023-03-23T05:22:17;4.07;;;1.90;;
71629;SDS011;59479;51.902;8.212;2023-03-23T05:24:45;3.50;;;1.95;;
71629;SDS011;59479;51.902;8.212;2023-03-23T05:27:11;4.77;;;1.80;;
71629;SDS011;59479;51.902;8.212;2023-03-23T05:29:37;3.92;;;2.15;;
71629;SDS011;59479;51.902;8.212;2023-03-23T05:32:05;4.35;;;2.05;;
71629;SDS011;59479;51.902;8.212;2023-03-23T05:34:32;3.93;;;2.07;;
71629;SDS011;59479;51.902;8.212;2023-03-23T05:36:59;4.00;;;1.65;;
71629;SDS011;59479;51.902;8.212;2023-03-23T05:39:25;4.80;;;2.00;;
71629;SDS011;59479;51.902;8.212;2023-03-23T05:41:51;5.25;;;2.13;;
71629;SDS011;59479;51.902;8.212;2023-03-23T05:44:17;4.47;;;1.90;;
71629;SDS011;59479;51.902;8.212;2023-03-23T05:46:43;5.00;;;2.07;;
71629;SDS011;59479;51.902;8.212;2023-03-23T05:49:08;4.70;;;2.17;;
71629;SDS011;59479;51.902;8.212;2023-03-23T05:51:34;5.18;;;1.95;;
71629;SDS011;59479;51.902;8.212;2023-03-23T05:53:59;4.33;;;2.13;;
71629;SDS011;59479;51.902;8.212;2023-03-23T05:56:25;3.78;;;1.90;;
71629;SDS011;59479;51.902;8.212;2023-03-23T05:58:50;4.50;;;1.70;;
71629;SDS011;59479;51.902;8.212;2023-03-23T06:01:16;4.80;;;2.30;;
71629;SDS011;59479;51.902;8.212;2023-03-23T06:03:42;4.40;;;1.90;;
71629;SDS011;59479;51.902;8.212;2023-03-23T06:06:09;5.22;;;2.20;;
71629;SDS011;59479;51.902;8.212;2023-03-23T06:08:36;5.20;;;2.33;;
71629;SDS011;59479;51.902;8.212;2023-03-23T06:11:02;5.60;;;1.77;;
71629;SDS011;59479;51.902;8.212;2023-03-23T06:13:28;3.65;;;1.98;;
71629;SDS011;59479;51.902;8.212;2023-03-23T06:15:56;3.90;;;1.90;;
71629;SDS011;59479;51.902;8.212;2023-03-23T06:18:24;3.40;;;1.90;;
71629;SDS011;59479;51.902;8.212;2023-03-23T06:20:51;3.63;;;1.75;;
71629;SDS011;59479;51.902;8.212;2023-03-23T06:23:17;3.90;;;2.07;;
71629;SDS011;59479;51.902;8.212;2023-03-23T06:25:43;5.32;;;2.00;;
71629;SDS011;59479;51.902;8.212;2023-03-23T06:28:09;4.53;;;1.90;;
71629;SDS011;59479;51.902;8.212;2023-03-23T06:30:38;5.32;;;2.08;;
71629;SDS011;59479;51.902;8.212;2023-03-23T06:33:04;3.88;;;1.88;;
71629;SDS011;59479;51.902;8.212;2023-03-23T06:35:30;4.70;;;2.08;;
71629;SDS011;59479;51.902;8.212;2023-03-23T06:37:56;3.70;;;1.90;;
71629;SDS011;59479;51.902;8.212;2023-03-23T06:40:26;3.53;;;1.42;;
71629;SDS011;59479;51.902;8.212;2023-03-23T06:42:52;3.45;;;2.08;;
71629;SDS011;59479;51.902;8.212;2023-03-23T06:45:17;4.50;;;1.90;;
71629;SDS011;59479;51.902;8.212;2023-03-23T06:47:44;5.10;;;2.10;;
71629;SDS011;59479;51.902;8.212;2023-03-23T06:50:10;3.77;;;2.17;;
71629;SDS011;59479;51.902;8.212;2023-03-23T06:52:36;4.43;;;2.00;;
71629;SDS011;59479;51.902;8.212;2023-03-23T06:55:01;6.10;;;2.00;;
71629;SDS011;59479;51.902;8.212;2023-03-23T06:57:27;3.92;;;2.13;;
71629;SDS011;59479;51.902;8.212;2023-03-23T06:59:52;4.67;;;2.00;;
71629;SDS011;59479;51.902;8.212;2023-03-23T07:02:17;3.93;;;1.93;;
71629;SDS011;59479;51.902;8.212;2023-03-23T07:04:43;3.60;;;2.00;;
71629;SDS011;59479;51.902;8.212;2023-03-23T07:07:09;5.27;;;2.10;;
71629;SDS011;59479;51.902;8.212;2023-03-23T07:09:36;4.82;;;1.95;;
71629;SDS011;59479;51.902;8.212;2023-03-23T07:12:01;3.90;;;1.90;;
71629;SDS011;59479;51.902;8.212;2023-03-23T07:14:27;4.45;;;1.77;;
71629;SDS011;59479;51.902;8.212;2023-03-23T07:16:53;6.20;;;1.83;;
71629;SDS011;59479;51.902;8.212;2023-03-23T07:19:18;5.55;;;1.90;;
71629;SDS011;59479;51.902;8.212;2023-03-23T07:21:44;5.13;;;2.30;;
71629;SDS011;59479;51.902;8.212;2023-03-23T07:24:10;5.03;;;2.43;;
71629;SDS011;59479;51.902;8.212;2023-03-23T07:26:39;4.95;;;1.95;;
71629;SDS011;59479;51.902;8.212;2023-03-23T07:29:05;4.18;;;2.17;;
71629;SDS011;59479;51.902;8.212;2023-03-23T07:31:31;4.65;;;2.25;;
71629;SDS011;59479;51.902;8.212;2023-03-23T07:33:57;5.70;;;2.17;;
71629;SDS011;59479;51.902;8.212;2023-03-23T07:36:22;5.37;;;2.00;;
71629;SDS011;59479;51.902;8.212;2023-03-23T07:38:47;4.37;;;2.30;;
71629;SDS011;59479;51.902;8.212;2023-03-23T07:41:13;6.32;;;2.35;;
71629;SDS011;59479;51.902;8.212;2023-03-23T07:43:38;5.20;;;2.73;;
71629;SDS011;59479;51.902;8.212;2023-03-23T07:46:04;4.53;;;2.37;;
71629;SDS011;59479;51.902;8.212;2023-03-23T07:48:30;5.18;;;2.42;;
71629;SDS011;59479;51.902;8.212;2023-03-23T07:50:55;4.93;;;1.97;;
71629;SDS011;59479;51.902;8.212;2023-03-23T07:53:20;6.03;;;2.27;;
71629;SDS011;59479;51.902;8.212;2023-03-23T07:55:47;5.90;;;2.30;;
71629;SDS011;59479;51.902;8.212;2023-03-23T07:58:12;6.60;;;2.13;;
71629;SDS011;59479;51.902;8.212;2023-03-23T08:00:43;6.72;;;2.42;;
71629;SDS011;59479;51.902;8.212;2023-03-23T08:03:10;5.40;;;2.10;;
71629;SDS011;59479;51.902;8.212;2023-03-23T08:05:36;6.15;;;1.80;;
71629;SDS011;59479;51.902;8.212;2023-03-23T08:08:01;6.47;;;2.30;;
71629;SDS011;59479;51.902;8.212;2023-03-23T08:10:27;7.67;;;2.40;;
71629;SDS011;59479;51.902;8.212;2023-03-23T08:12:53;7.03;;;2.40;;
71629;SDS011;59479;51.902;8.212;2023-03-23T08:15:20;6.57;;;2.22;;
71629;SDS011;59479;51.902;8.212;2023-03-23T08:17:46;5.80;;;2.63;;
71629;SDS011;59479;51.902;8.212;2023-03-23T08:20:12;5.43;;;2.08;;
71629;SDS011;59479;51.902;8.212;2023-03-23T08:22:39;4.60;;;2.50;;
71629;SDS011;59479;51.902;8.212;2023-03-23T08:25:05;5.32;;;2.00;;
71629;SDS011;59479;51.902;8.212;2023-03-23T08:27:32;6.47;;;2.08;;
71629;SDS011;59479;51.902;8.212;2023-03-23T08:29:58;5.70;;;2.10;;
71629;SDS011;59479;51.902;8.212;2023-03-23T08:32:24;5.72;;;2.45;;
71629;SDS011;59479;51.902;8.212;2023-03-23T08:34:49;5.77;;;1.97;;
71629;SDS011;59479;51.902;8.212;2023-03-23T08:37:15;5.17;;;2.03;;
71629;SDS011;59479;51.902;8.212;2023-03-23T08:39:41;6.88;;;2.00;;
71629;SDS011;59479;51.902;8.212;2023-03-23T08:42:08;4.78;;;1.85;;
71629;SDS011;59479;51.902;8.212;2023-03-23T08:44:34;5.90;;;2.47;;
71629;SDS011;59479;51.902;8.212;2023-03-23T08:47:01;5.22;;;2.72;;
71629;SDS011;59479;51.902;8.212;2023-03-23T08:49:28;6.13;;;2.33;;
71629;SDS011;59479;51.902;8.212;2023-03-23T08:51:55;7.63;;;2.88;;
71629;SDS011;59479;51.902;8.212;2023-03-23T08:54:21;6.43;;;2.47;;
71629;SDS011;59479;51.902;8.212;2023-03-23T08:56:46;16.77;;;4.57;;
71629;SDS011;59479;51.902;8.212;2023-03-23T08:59:12;7.03;;;2.50;;
71629;SDS011;59479;51.902;8.212;2023-03-23T09:01:37;7.63;;;2.67;;
71629;SDS011;59479;51.902;8.212;2023-03-23T09:04:03;5.03;;;2.37;;
71629;SDS011;59479;51.902;8.212;2023-03-23T09:06:29;7.20;;;2.58;;
71629;SDS011;59479;51.902;8.212;2023-03-23T09:08:55;7.63;;;2.50;;
71629;SDS011;59479;51.902;8.212;2023-03-23T09:11:21;5.57;;;2.35;;
71629;SDS011;59479;51.902;8.212;2023-03-23T09:13:46;5.83;;;2.23;;
71629;SDS011;59479;51.902;8.212;2023-03-23T09:16:11;8.20;;;2.30;;
71629;SDS011;59479;51.902;8.212;2023-03-23T09:18:37;5.67;;;2.07;;
71629;SDS011;59479;51.902;8.212;2023-03-23T09:21:03;6.55;;;2.03;;
71629;SDS011;59479;51.902;8.212;2023-03-23T09:23:29;6.93;;;2.03;;
71629;SDS011;59479;51.902;8.212;2023-03-23T09:25:55;5.27;;;2.50;;
71629;SDS011;59479;51.902;8.212;2023-03-23T09:28:20;8.60;;;2.35;;
71629;SDS011;59479;51.902;8.212;2023-03-23T09:30:46;5.53;;;1.93;;
71629;SDS011;59479;51.902;8.212;2023-03-23T09:33:12;6.80;;;2.23;;
71629;SDS011;59479;51.902;8.212;2023-03-23T09:35:38;6.60;;;2.05;;
71629;SDS011;59479;51.902;8.212;2023-03-23T09:38:06;5.38;;;2.30;;
71629;SDS011;59479;51.902;8.212;2023-03-23T09:40:38;7.30;;;2.75;;
71629;SDS011;59479;51.902;8.212;2023-03-23T09:51:41;5.57;;;2.05;;
71629;SDS011;59479;51.902;8.212;2023-03-23T09:54:20;5.68;;;2.28;;
71629;SDS011;59479;51.902;8.212;2023-03-23T09:56:51;4.90;;;2.08;;
71629;SDS011;59479;51.902;8.212;2023-03-23T10:05:49;8.35;;;2.67;;
71629;SDS011;59479;51.902;8.212;2023-03-23T10:07:57;6.05;;;2.42;;
71629;SDS011;59479;51.902;8.212;2023-03-23T10:10:26;5.80;;;2.33;;
71629;SDS011;59479;51.902;8.212;2023-03-23T10:13:00;8.50;;;2.47;;
71629;SDS011;59479;51.902;8.212;2023-03-23T10:15:30;4.15;;;2.22;;
71629;SDS011;59479;51.902;8.212;2023-03-23T10:20:40;6.63;;;2.65;;
71629;SDS011;59479;51.902;8.212;2023-03-23T10:25:58;8.63;;;2.43;;
71629;SDS011;59479;51.902;8.212;2023-03-23T10:28:39;7.03;;;2.38;;
71629;SDS011;59479;51.902;8.212;2023-03-23T10:31:19;5.18;;;2.10;;
71629;SDS011;59479;51.902;8.212;2023-03-23T10:33:48;6.75;;;2.22;;
71629;SDS011;59479;51.902;8.212;2023-03-23T10:36:18;5.07;;;2.15;;
71629;SDS011;59479;51.902;8.212;2023-03-23T10:39:37;5.30;;;2.30;;
71629;SDS011;59479;51.902;8.212;2023-03-23T10:41:36;6.47;;;2.08;;
71629;SDS011;59479;51.902;8.212;2023-03-23T10:44:07;5.78;;;1.95;;
71629;SDS011;59479;51.902;8.212;2023-03-23T10:46:57;4.95;;;1.95;;
71629;SDS011;59479;51.902;8.212;2023-03-23T10:49:25;4.55;;;1.20;;
71629;SDS011;59479;51.902;8.212;2023-03-23T10:51:57;2.50;;;1.00;;
71629;SDS011;59479;51.902;8.212;2023-03-23T10:54:36;2.72;;;1.10;;
71629;SDS011;59479;51.902;8.212;2023-03-23T10:57:20;4.18;;;1.15;;
71629;SDS011;59479;51.902;8.212;2023-03-23T10:59:48;4.05;;;2.03;;
71629;SDS011;59479;51.902;8.212;2023-03-23T11:02:15;2.70;;;1.20;;
71629;SDS011;59479;51.902;8.212;2023-03-23T11:04:46;5.05;;;1.17;;
71629;SDS011;59479;51.902;8.212;2023-03-23T11:07:24;3.50;;;1.13;;
71629;SDS011;59479;51.902;8.212;2023-03-23T11:09:57;3.13;;;1.30;;
71629;SDS011;59479;51.902;8.212;2023-03-23T11:12:28;3.07;;;1.13;;
71629;SDS011;59479;51.902;8.212;2023-03-23T11:15:03;3.17;;;1.00;;
71629;SDS011;59479;51.902;8.212;2023-03-23T11:17:41;4.38;;;1.40;;
71629;SDS011;59479;51.902;8.212;2023-03-23T11:20:10;3.60;;;1.47;;
71629;SDS011;59479;51.902;8.212;2023-03-23T11:22:37;3.85;;;1.58;;
71629;SDS011;59479;51.902;8.212;2023-03-23T11:25:04;4.87;;;1.50;;
71629;SDS011;59479;51.902;8.212;2023-03-23T11:27:31;3.42;;;1.35;;
71629;SDS011;59479;51.902;8.212;2023-03-23T11:32:34;5.22;;;1.40;;
71629;SDS011;59479;51.902;8.212;2023-03-23T11:35:06;5.60;;;1.57;;
71629;SDS011;59479;51.902;8.212;2023-03-23T11:37:40;3.33;;;1.38;;
71629;SDS011;59479;51.902;8.212;2023-03-23T11:42:49;4.78;;;1.15;;
71629;SDS011;59479;51.902;8.212;2023-03-23T11:50:30;3.05;;;1.08;;
71629;SDS011;59479;51.902;8.212;2023-03-23T11:55:25;4.73;;;1.20;;
71629;SDS011;59479;51.902;8.212;2023-03-23T11:57:54;3.00;;;1.38;;
71629;SDS011;59479;51.902;8.212;2023-03-23T12:00:24;4.15;;;1.65;;
71629;SDS011;59479;51.902;8.212;2023-03-23T12:06:13;3.95;;;1.05;;
71629;SDS011;59479;51.902;8.212;2023-03-23T12:08:58;3.58;;;1.20;;
71629;SDS011;59479;51.902;8.212;2023-03-23T12:11:39;3.75;;;1.58;;
71629;SDS011;59479;51.902;8.212;2023-03-23T12:14:16;3.13;;;0.97;;
71629;SDS011;59479;51.902;8.212;2023-03-23T12:20:00;5.18;;;1.45;;
71629;SDS011;59479;51.902;8.212;2023-03-23T12:27:43;4.77;;;1.37;;
71629;SDS011;59479;51.902;8.212;2023-03-23T12:30:17;4.57;;;1.40;;
71629;SDS011;59479;51.902;8.212;2023-03-23T12:41:09;5.87;;;1.30;;
71629;SDS011;59479;51.902;8.212;2023-03-23T12:43:51;4.65;;;1.25;;
71629;SDS011;59479;51.902;8.212;2023-03-23T12:49:20;4.22;;;1.33;;
71629;SDS011;59479;51.902;8.212;2023-03-23T12:51:55;4.05;;;1.50;;
71629;SDS011;59479;51.902;8.212;2023-03-23T12:56:59;3.35;;;1.40;;
71629;SDS011;59479;51.902;8.212;2023-03-23T12:59:32;3.20;;;1.52;;
71629;SDS011;59479;51.902;8.212;2023-03-23T13:02:43;5.57;;;1.80;;
71629;SDS011;59479;51.902;8.212;2023-03-23T13:07:45;3.63;;;1.60;;
71629;SDS011;59479;51.902;8.212;2023-03-23T13:10:24;4.45;;;1.58;;
71629;SDS011;59479;51.902;8.212;2023-03-23T13:12:54;4.18;;;1.80;;
71629;SDS011;59479;51.902;8.212;2023-03-23T13:18:11;5.47;;;2.07;;
71629;SDS011;59479;51.902;8.212;2023-03-23T13:20:51;4.78;;;1.77;;
71629;SDS011;59479;51.902;8.212;2023-03-23T13:23:38;4.03;;;1.67;;
71629;SDS011;59479;51.902;8.212;2023-03-23T13:26:07;4.10;;;1.50;;
71629;SDS011;59479;51.902;8.212;2023-03-23T13:28:48;3.95;;;1.15;;
71629;SDS011;59479;51.902;8.212;2023-03-23T13:31:28;3.77;;;1.43;;
71629;SDS011;59479;51.902;8.212;2023-03-23T13:33:59;5.07;;;1.23;;
71629;SDS011;59479;51.902;8.212;2023-03-23T13:39:28;4.60;;;1.70;;
71629;SDS011;59479;51.902;8.212;2023-03-23T13:44:24;4.13;;;1.83;;
71629;SDS011;59479;51.902;8.212;2023-03-23T13:47:06;3.60;;;1.67;;
71629;SDS011;59479;51.902;8.212;2023-03-23T13:49:44;4.22;;;2.08;;
71629;SDS011;59479;51.902;8.212;2023-03-23T13:52:17;4.25;;;2.20;;
71629;SDS011;59479;51.902;8.212;2023-03-23T13:54:48;4.18;;;1.98;;
71629;SDS011;59479;51.902;8.212;2023-03-23T13:57:21;5.10;;;2.03;;
71629;SDS011;59479;51.902;8.212;2023-03-23T13:59:55;4.75;;;2.30;;
71629;SDS011;59479;51.902;8.212;2023-03-23T14:02:32;7.22;;;2.13;;
71629;SDS011;59479;51.902;8.212;2023-03-23T14:05:35;4.47;;;1.92;;
71629;SDS011;59479;51.902;8.212;2023-03-23T14:08:21;5.07;;;1.67;;
71629;SDS011;59479;51.902;8.212;2023-03-23T14:11:09;4.40;;;2.20;;
71629;SDS011;59479;51.902;8.212;2023-03-23T14:16:16;4.38;;;2.25;;
71629;SDS011;59479;51.902;8.212;2023-03-23T14:23:53;4.73;;;2.37;;
71629;SDS011;59479;51.902;8.212;2023-03-23T14:26:21;5.05;;;2.70;;
71629;SDS011;59479;51.902;8.212;2023-03-23T14:28:49;4.93;;;2.65;;
71629;SDS011;59479;51.902;8.212;2023-03-23T14:31:18;4.60;;;2.60;;
71629;SDS011;59479;51.902;8.212;2023-03-23T14:33:49;4.57;;;2.30;;
71629;SDS011;59479;51.902;8.212;2023-03-23T14:36:20;4.72;;;2.42;;
71629;SDS011;59479;51.902;8.212;2023-03-23T14:38:47;5.40;;;2.80;;
71629;SDS011;59479;51.902;8.212;2023-03-23T14:41:13;5.60;;;2.75;;
71629;SDS011;59479;51.902;8.212;2023-03-23T14:43:38;5.17;;;2.30;;
71629;SDS011;59479;51.902;8.212;2023-03-23T14:46:07;5.60;;;2.05;;
71629;SDS011;59479;51.902;8.212;2023-03-23T14:48:35;4.70;;;2.07;;
71629;SDS011;59479;51.902;8.212;2023-03-23T14:51:03;4.25;;;2.00;;
71629;SDS011;59479;51.902;8.212;2023-03-23T14:53:34;6.43;;;2.33;;
71629;SDS011;59479;51.902;8.212;2023-03-23T14:56:03;5.20;;;2.25;;
71629;SDS011;59479;51.902;8.212;2023-03-23T14:58:35;5.25;;;2.03;;
71629;SDS011;59479;51.902;8.212;2023-03-23T15:01:02;5.83;;;2.30;;
71629;SDS011;59479;51.902;8.212;2023-03-23T15:03:37;4.20;;;2.05;;
71629;SDS011;59479;51.902;8.212;2023-03-23T15:06:12;4.77;;;2.13;;
71629;SDS011;59479;51.902;8.212;2023-03-23T15:08:43;4.93;;;2.22;;
71629;SDS011;59479;51.902;8.212;2023-03-23T15:13:44;9.02;;;2.88;;
71629;SDS011;59479;51.902;8.212;2023-03-23T15:16:13;4.88;;;2.35;;
71629;SDS011;59479;51.902;8.212;2023-03-23T15:18:47;4.97;;;1.97;;
71629;SDS011;59479;51.902;8.212;2023-03-23T15:21:23;6.20;;;2.20;;
71629;SDS011;59479;51.902;8.212;2023-03-23T15:23:50;4.82;;;2.10;;
71629;SDS011;59479;51.902;8.212;2023-03-23T15:26:24;6.03;;;2.35;;
71629;SDS011;59479;51.902;8.212;2023-03-23T15:31:33;4.43;;;2.27;;
71629;SDS011;59479;51.902;8.212;2023-03-23T15:34:03;5.80;;;2.15;;
71629;SDS011;59479;51.902;8.212;2023-03-23T15:36:33;6.75;;;2.40;;
71629;SDS011;59479;51.902;8.212;2023-03-23T15:39:00;5.03;;;2.25;;
71629;SDS011;59479;51.902;8.212;2023-03-23T15:41:27;5.70;;;2.50;;
71629;SDS011;59479;51.902;8.212;2023-03-23T15:43:54;5.03;;;1.80;;
71629;SDS011;59479;51.902;8.212;2023-03-23T15:46:27;6.30;;;2.00;;
71629;SDS011;59479;51.902;8.212;2023-03-23T15:51:29;6.72;;;2.17;;
71629;SDS011;59479;51.902;8.212;2023-03-23T15:53:55;5.00;;;1.90;;
71629;SDS011;59479;51.902;8.212;2023-03-23T15:56:22;5.32;;;2.25;;
71629;SDS011;59479;51.902;8.212;2023-03-23T15:58:48;5.82;;;2.80;;
71629;SDS011;59479;51.902;8.212;2023-03-23T16:01:18;5.30;;;2.30;;
71629;SDS011;59479;51.902;8.212;2023-03-23T16:03:53;4.53;;;2.40;;
71629;SDS011;59479;51.902;8.212;2023-03-23T16:06:22;5.90;;;2.60;;
71629;SDS011;59479;51.902;8.212;2023-03-23T16:08:49;6.45;;;3.08;;
71629;SDS011;59479;51.902;8.212;2023-03-23T16:11:17;5.80;;;2.60;;
71629;SDS011;59479;51.902;8.212;2023-03-23T16:13:43;5.57;;;2.70;;
71629;SDS011;59479;51.902;8.212;2023-03-23T16:16:31;6.20;;;2.83;;
71629;SDS011;59479;51.902;8.212;2023-03-23T16:18:57;7.40;;;2.33;;
71629;SDS011;59479;51.902;8.212;2023-03-23T16:21:23;6.32;;;2.75;;
71629;SDS011;59479;51.902;8.212;2023-03-23T16:23:48;5.80;;;2.85;;
71629;SDS011;59479;51.902;8.212;2023-03-23T16:26:14;5.33;;;2.70;;
71629;SDS011;59479;51.902;8.212;2023-03-23T16:28:40;6.35;;;2.92;;
71629;SDS011;59479;51.902;8.212;2023-03-23T16:31:06;7.60;;;3.55;;
71629;SDS011;59479;51.902;8.212;2023-03-23T16:33:32;7.83;;;2.67;;
71629;SDS011;59479;51.902;8.212;2023-03-23T16:35:57;4.43;;;2.53;;
71629;SDS011;59479;51.902;8.212;2023-03-23T16:38:23;5.43;;;3.10;;
71629;SDS011;59479;51.902;8.212;2023-03-23T16:40:49;7.20;;;3.00;;
71629;SDS011;59479;51.902;8.212;2023-03-23T16:43:15;6.38;;;2.60;;